sensor_id;sensor_type;location;lat;lon;timestamp;P1;durP1;ratioP1;P2;durP2;ratioP2
19605;SDS011;9950;50.168;8.210;2023-04-25T00:00:23;19.63;;;11.23;;
19605;SDS011;9950;50.168;8.210;2023-04-25T00:02:50;18.83;;;12.63;;
19605;SDS011;9950;50.168;8.210;2023-04-25T00:05:17;20.08;;;11.90;;
19605;SDS011;9950;50.168;8.210;2023-04-25T00:07:45;16.15;;;11.93;;
19605;SDS011;9950;50.168;8.210;2023-04-25T00:10:14;16.55;;;11.85;;
19605;SDS011;9950;50.168;8.210;2023-04-25T00:12:41;18.77;;;12.90;;
19605;SDS011;9950;50.168;8.210;2023-04-25T00:15:09;15.25;;;10.55;;
19605;SDS011;9950;50.168;8.210;2023-04-25T00:17:36;17.40;;;11.23;;
19605;SDS011;9950;50.168;8.210;2023-04-25T00:20:04;16.10;;;11.10;;
19605;SDS011;9950;50.168;8.210;2023-04-25T00:22:34;14.27;;;10.95;;
19605;SDS011;9950;50.168;8.210;2023-04-25T00:25:03;15.75;;;10.45;;
19605;SDS011;9950;50.168;8.210;2023-04-25T00:27:32;14.45;;;10.23;;
19605;SDS011;9950;50.168;8.210;2023-04-25T00:29:59;17.60;;;10.65;;
19605;SDS011;9950;50.168;8.210;2023-04-25T00:32:27;13.23;;;10.10;;
19605;SDS011;9950;50.168;8.210;2023-04-25T00:34:54;15.00;;;10.35;;
19605;SDS011;9950;50.168;8.210;2023-04-25T00:37:22;13.00;;;9.50;;
19605;SDS011;9950;50.168;8.210;2023-04-25T00:39:50;14.35;;;9.52;;
19605;SDS011;9950;50.168;8.210;2023-04-25T00:42:18;15.80;;;9.65;;
19605;SDS011;9950;50.168;8.210;2023-04-25T00:44:47;13.05;;;9.60;;
19605;SDS011;9950;50.168;8.210;2023-04-25T00:47:14;11.77;;;8.43;;
19605;SDS011;9950;50.168;8.210;2023-04-25T00:49:42;13.50;;;9.50;;
19605;SDS011;9950;50.168;8.210;2023-04-25T00:52:09;12.55;;;8.75;;
19605;SDS011;9950;50.168;8.210;2023-04-25T00:54:36;12.82;;;9.15;;
19605;SDS011;9950;50.168;8.210;2023-04-25T00:57:04;13.27;;;9.00;;
19605;SDS011;9950;50.168;8.210;2023-04-25T00:59:31;13.80;;;9.73;;
19605;SDS011;9950;50.168;8.210;2023-04-25T01:01:59;14.00;;;10.13;;
19605;SDS011;9950;50.168;8.210;2023-04-25T01:04:27;15.13;;;10.18;;
19605;SDS011;9950;50.168;8.210;2023-04-25T01:06:54;14.52;;;9.57;;
19605;SDS011;9950;50.168;8.210;2023-04-25T01:09:22;16.45;;;10.20;;
19605;SDS011;9950;50.168;8.210;2023-04-25T01:11:49;21.00;;;12.90;;
19605;SDS011;9950;50.168;8.210;2023-04-25T01:14:16;17.20;;;11.07;;
19605;SDS011;9950;50.168;8.210;2023-04-25T01:16:44;19.80;;;12.27;;
19605;SDS011;9950;50.168;8.210;2023-04-25T01:19:12;19.05;;;12.38;;
19605;SDS011;9950;50.168;8.210;2023-04-25T01:21:44;18.83;;;11.98;;
19605;SDS011;9950;50.168;8.210;2023-04-25T01:24:12;21.02;;;13.25;;
19605;SDS011;9950;50.168;8.210;2023-04-25T01:26:39;20.83;;;12.32;;
19605;SDS011;9950;50.168;8.210;2023-04-25T01:29:09;21.08;;;13.18;;
19605;SDS011;9950;50.168;8.210;2023-04-25T01:31:37;20.70;;;13.02;;
19605;SDS011;9950;50.168;8.210;2023-04-25T01:34:04;21.17;;;13.07;;
19605;SDS011;9950;50.168;8.210;2023-04-25T01:36:32;21.85;;;13.63;;
19605;SDS011;9950;50.168;8.210;2023-04-25T01:39:00;26.83;;;13.05;;
19605;SDS011;9950;50.168;8.210;2023-04-25T01:41:28;22.08;;;13.23;;
19605;SDS011;9950;50.168;8.210;2023-04-25T01:43:55;23.85;;;14.25;;
19605;SDS011;9950;50.168;8.210;2023-04-25T01:46:22;22.55;;;13.98;;
19605;SDS011;9950;50.168;8.210;2023-04-25T01:48:50;23.85;;;13.68;;
19605;SDS011;9950;50.168;8.210;2023-04-25T01:51:17;21.38;;;13.35;;
19605;SDS011;9950;50.168;8.210;2023-04-25T01:53:44;24.02;;;13.68;;
19605;SDS011;9950;50.168;8.210;2023-04-25T01:56:13;21.05;;;13.02;;
19605;SDS011;9950;50.168;8.210;2023-04-25T01:58:40;27.77;;;14.40;;
19605;SDS011;9950;50.168;8.210;2023-04-25T02:01:07;24.83;;;13.07;;
19605;SDS011;9950;50.168;8.210;2023-04-25T02:03:34;25.58;;;13.30;;
19605;SDS011;9950;50.168;8.210;2023-04-25T02:06:01;20.75;;;11.93;;
19605;SDS011;9950;50.168;8.210;2023-04-25T02:08:29;22.92;;;12.77;;
19605;SDS011;9950;50.168;8.210;2023-04-25T02:10:56;23.35;;;12.38;;
19605;SDS011;9950;50.168;8.210;2023-04-25T02:13:25;22.80;;;13.20;;
19605;SDS011;9950;50.168;8.210;2023-04-25T02:15:52;21.77;;;12.25;;
19605;SDS011;9950;50.168;8.210;2023-04-25T02:18:19;23.17;;;12.38;;
19605;SDS011;9950;50.168;8.210;2023-04-25T02:20:46;21.92;;;12.30;;
19605;SDS011;9950;50.168;8.210;2023-04-25T02:23:13;19.38;;;11.38;;
19605;SDS011;9950;50.168;8.210;2023-04-25T02:25:41;23.00;;;11.77;;
19605;SDS011;9950;50.168;8.210;2023-04-25T02:28:08;20.92;;;12.05;;
19605;SDS011;9950;50.168;8.210;2023-04-25T02:30:37;22.15;;;11.40;;
19605;SDS011;9950;50.168;8.210;2023-04-25T02:33:04;22.45;;;11.05;;
19605;SDS011;9950;50.168;8.210;2023-04-25T02:35:32;20.15;;;10.70;;
19605;SDS011;9950;50.168;8.210;2023-04-25T02:37:59;20.45;;;11.60;;
19605;SDS011;9950;50.168;8.210;2023-04-25T02:40:26;19.40;;;11.20;;
19605;SDS011;9950;50.168;8.210;2023-04-25T02:42:53;20.10;;;11.10;;
19605;SDS011;9950;50.168;8.210;2023-04-25T02:45:20;21.65;;;11.85;;
19605;SDS011;9950;50.168;8.210;2023-04-25T02:47:49;23.77;;;11.18;;
19605;SDS011;9950;50.168;8.210;2023-04-25T02:50:16;22.10;;;11.73;;
19605;SDS011;9950;50.168;8.210;2023-04-25T02:52:44;19.77;;;11.10;;
19605;SDS011;9950;50.168;8.210;2023-04-25T02:55:11;22.42;;;11.82;;
19605;SDS011;9950;50.168;8.210;2023-04-25T02:57:39;20.63;;;10.82;;
19605;SDS011;9950;50.168;8.210;2023-04-25T03:00:06;19.20;;;10.52;;
19605;SDS011;9950;50.168;8.210;2023-04-25T03:02:34;23.92;;;11.00;;
19605;SDS011;9950;50.168;8.210;2023-04-25T03:05:02;21.45;;;11.02;;
19605;SDS011;9950;50.168;8.210;2023-04-25T03:07:29;20.92;;;10.57;;
19605;SDS011;9950;50.168;8.210;2023-04-25T03:09:57;21.23;;;10.00;;
19605;SDS011;9950;50.168;8.210;2023-04-25T03:12:24;17.83;;;10.15;;
19605;SDS011;9950;50.168;8.210;2023-04-25T03:14:51;20.27;;;10.75;;
19605;SDS011;9950;50.168;8.210;2023-04-25T03:17:19;22.40;;;10.40;;
19605;SDS011;9950;50.168;8.210;2023-04-25T03:19:46;22.63;;;10.27;;
19605;SDS011;9950;50.168;8.210;2023-04-25T03:22:15;22.88;;;10.82;;
19605;SDS011;9950;50.168;8.210;2023-04-25T03:24:42;23.63;;;10.40;;
19605;SDS011;9950;50.168;8.210;2023-04-25T03:27:09;24.98;;;10.10;;
19605;SDS011;9950;50.168;8.210;2023-04-25T03:29:36;19.40;;;8.98;;
19605;SDS011;9950;50.168;8.210;2023-04-25T03:32:04;18.67;;;9.95;;
19605;SDS011;9950;50.168;8.210;2023-04-25T03:34:31;23.13;;;11.82;;
19605;SDS011;9950;50.168;8.210;2023-04-25T03:36:58;19.50;;;9.70;;
19605;SDS011;9950;50.168;8.210;2023-04-25T03:39:27;17.52;;;8.95;;
19605;SDS011;9950;50.168;8.210;2023-04-25T03:41:55;21.50;;;10.68;;
19605;SDS011;9950;50.168;8.210;2023-04-25T03:44:22;20.40;;;9.93;;
19605;SDS011;9950;50.168;8.210;2023-04-25T03:46:50;24.15;;;10.18;;
19605;SDS011;9950;50.168;8.210;2023-04-25T03:49:17;26.90;;;9.85;;
19605;SDS011;9950;50.168;8.210;2023-04-25T03:51:44;21.88;;;9.27;;
19605;SDS011;9950;50.168;8.210;2023-04-25T03:54:11;20.70;;;9.75;;
19605;SDS011;9950;50.168;8.210;2023-04-25T03:56:40;20.33;;;9.30;;
19605;SDS011;9950;50.168;8.210;2023-04-25T03:59:07;18.83;;;8.75;;
19605;SDS011;9950;50.168;8.210;2023-04-25T04:01:34;20.95;;;9.13;;
19605;SDS011;9950;50.168;8.210;2023-04-25T04:04:01;24.52;;;9.20;;
19605;SDS011;9950;50.168;8.210;2023-04-25T04:06:29;18.02;;;8.80;;
19605;SDS011;9950;50.168;8.210;2023-04-25T04:08:56;18.30;;;7.93;;
19605;SDS011;9950;50.168;8.210;2023-04-25T04:11:23;20.23;;;9.05;;
19605;SDS011;9950;50.168;8.210;2023-04-25T04:13:52;24.65;;;8.88;;
19605;SDS011;9950;50.168;8.210;2023-04-25T04:16:19;18.08;;;8.32;;
19605;SDS011;9950;50.168;8.210;2023-04-25T04:18:46;21.75;;;9.50;;
19605;SDS011;9950;50.168;8.210;2023-04-25T04:21:13;24.40;;;8.95;;
19605;SDS011;9950;50.168;8.210;2023-04-25T04:23:41;18.65;;;8.85;;
19605;SDS011;9950;50.168;8.210;2023-04-25T04:26:08;24.83;;;9.23;;
19605;SDS011;9950;50.168;8.210;2023-04-25T04:28:36;18.23;;;9.23;;
19605;SDS011;9950;50.168;8.210;2023-04-25T04:31:05;24.38;;;10.25;;
19605;SDS011;9950;50.168;8.210;2023-04-25T04:33:32;21.92;;;9.93;;
19605;SDS011;9950;50.168;8.210;2023-04-25T04:36:00;24.52;;;10.65;;
19605;SDS011;9950;50.168;8.210;2023-04-25T04:38:27;19.38;;;8.88;;
19605;SDS011;9950;50.168;8.210;2023-04-25T04:40:55;22.33;;;8.98;;
19605;SDS011;9950;50.168;8.210;2023-04-25T04:43:22;20.30;;;9.60;;
19605;SDS011;9950;50.168;8.210;2023-04-25T04:45:50;18.63;;;9.00;;
19605;SDS011;9950;50.168;8.210;2023-04-25T04:48:18;21.30;;;8.93;;
19605;SDS011;9950;50.168;8.210;2023-04-25T04:50:46;19.25;;;8.88;;
19605;SDS011;9950;50.168;8.210;2023-04-25T04:53:13;20.33;;;9.10;;
19605;SDS011;9950;50.168;8.210;2023-04-25T04:55:40;23.35;;;8.93;;
19605;SDS011;9950;50.168;8.210;2023-04-25T04:58:08;31.02;;;10.40;;
19605;SDS011;9950;50.168;8.210;2023-04-25T05:00:35;23.05;;;8.80;;
19605;SDS011;9950;50.168;8.210;2023-04-25T05:03:03;33.20;;;9.85;;
19605;SDS011;9950;50.168;8.210;2023-04-25T05:05:32;25.13;;;9.65;;
19605;SDS011;9950;50.168;8.210;2023-04-25T05:07:59;24.42;;;9.73;;
19605;SDS011;9950;50.168;8.210;2023-04-25T05:10:26;25.90;;;10.02;;
19605;SDS011;9950;50.168;8.210;2023-04-25T05:12:53;23.23;;;9.77;;
19605;SDS011;9950;50.168;8.210;2023-04-25T05:15:20;25.83;;;9.77;;
19605;SDS011;9950;50.168;8.210;2023-04-25T05:17:48;26.42;;;9.60;;
19605;SDS011;9950;50.168;8.210;2023-04-25T05:20:15;24.73;;;9.13;;
19605;SDS011;9950;50.168;8.210;2023-04-25T05:22:45;25.67;;;9.38;;
19605;SDS011;9950;50.168;8.210;2023-04-25T05:25:12;22.38;;;9.50;;
19605;SDS011;9950;50.168;8.210;2023-04-25T05:27:39;26.05;;;11.55;;
19605;SDS011;9950;50.168;8.210;2023-04-25T05:30:07;24.40;;;8.93;;
19605;SDS011;9950;50.168;8.210;2023-04-25T05:32:35;29.02;;;10.07;;
19605;SDS011;9950;50.168;8.210;2023-04-25T05:35:02;24.10;;;9.93;;
19605;SDS011;9950;50.168;8.210;2023-04-25T05:37:31;25.05;;;10.18;;
19605;SDS011;9950;50.168;8.210;2023-04-25T05:40:00;26.48;;;10.25;;
19605;SDS011;9950;50.168;8.210;2023-04-25T05:42:31;22.80;;;9.55;;
19605;SDS011;9950;50.168;8.210;2023-04-25T05:44:59;24.40;;;9.25;;
19605;SDS011;9950;50.168;8.210;2023-04-25T05:47:26;26.55;;;9.45;;
19605;SDS011;9950;50.168;8.210;2023-04-25T05:49:53;23.95;;;9.40;;
19605;SDS011;9950;50.168;8.210;2023-04-25T05:52:21;24.13;;;10.35;;
19605;SDS011;9950;50.168;8.210;2023-04-25T05:54:48;27.85;;;11.70;;
19605;SDS011;9950;50.168;8.210;2023-04-25T05:57:21;26.13;;;9.98;;
19605;SDS011;9950;50.168;8.210;2023-04-25T05:59:48;24.85;;;10.68;;
19605;SDS011;9950;50.168;8.210;2023-04-25T06:02:15;20.15;;;9.90;;
19605;SDS011;9950;50.168;8.210;2023-04-25T06:04:42;24.20;;;10.63;;
19605;SDS011;9950;50.168;8.210;2023-04-25T06:07:09;24.83;;;9.80;;
19605;SDS011;9950;50.168;8.210;2023-04-25T06:09:37;23.17;;;9.20;;
19605;SDS011;9950;50.168;8.210;2023-04-25T06:12:05;22.30;;;8.60;;
19605;SDS011;9950;50.168;8.210;2023-04-25T06:14:33;27.33;;;9.32;;
19605;SDS011;9950;50.168;8.210;2023-04-25T06:17:00;21.35;;;8.10;;
19605;SDS011;9950;50.168;8.210;2023-04-25T06:19:31;16.80;;;8.77;;
19605;SDS011;9950;50.168;8.210;2023-04-25T06:21:58;17.08;;;9.43;;
19605;SDS011;9950;50.168;8.210;2023-04-25T06:24:26;20.27;;;8.52;;
19605;SDS011;9950;50.168;8.210;2023-04-25T06:26:53;19.60;;;7.60;;
19605;SDS011;9950;50.168;8.210;2023-04-25T06:29:20;15.80;;;7.03;;
19605;SDS011;9950;50.168;8.210;2023-04-25T06:31:49;14.57;;;6.47;;
19605;SDS011;9950;50.168;8.210;2023-04-25T06:34:16;17.63;;;7.20;;
19605;SDS011;9950;50.168;8.210;2023-04-25T06:36:43;15.75;;;6.63;;
19605;SDS011;9950;50.168;8.210;2023-04-25T06:39:11;20.38;;;8.30;;
19605;SDS011;9950;50.168;8.210;2023-04-25T06:41:38;18.63;;;6.88;;
19605;SDS011;9950;50.168;8.210;2023-04-25T06:44:05;11.25;;;6.00;;
19605;SDS011;9950;50.168;8.210;2023-04-25T06:46:32;13.40;;;6.30;;
19605;SDS011;9950;50.168;8.210;2023-04-25T06:49:01;13.13;;;6.80;;
19605;SDS011;9950;50.168;8.210;2023-04-25T06:51:28;12.95;;;6.18;;
19605;SDS011;9950;50.168;8.210;2023-04-25T06:53:55;12.73;;;5.78;;
19605;SDS011;9950;50.168;8.210;2023-04-25T06:56:23;17.27;;;6.50;;
19605;SDS011;9950;50.168;8.210;2023-04-25T06:58:50;12.30;;;5.97;;
19605;SDS011;9950;50.168;8.210;2023-04-25T07:01:17;10.45;;;5.22;;
19605;SDS011;9950;50.168;8.210;2023-04-25T07:03:44;11.48;;;5.60;;
19605;SDS011;9950;50.168;8.210;2023-04-25T07:06:13;9.90;;;4.85;;
19605;SDS011;9950;50.168;8.210;2023-04-25T07:08:40;11.65;;;4.93;;
19605;SDS011;9950;50.168;8.210;2023-04-25T07:11:07;14.25;;;5.53;;
19605;SDS011;9950;50.168;8.210;2023-04-25T07:13:34;8.10;;;4.80;;
19605;SDS011;9950;50.168;8.210;2023-04-25T07:16:02;13.10;;;5.47;;
19605;SDS011;9950;50.168;8.210;2023-04-25T07:18:30;13.20;;;5.18;;
19605;SDS011;9950;50.168;8.210;2023-04-25T07:20:57;12.70;;;5.60;;
19605;SDS011;9950;50.168;8.210;2023-04-25T07:23:25;9.60;;;5.05;;
19605;SDS011;9950;50.168;8.210;2023-04-25T07:25:53;10.95;;;4.90;;
19605;SDS011;9950;50.168;8.210;2023-04-25T07:28:20;11.25;;;5.00;;
19605;SDS011;9950;50.168;8.210;2023-04-25T07:30:48;9.43;;;4.68;;
19605;SDS011;9950;50.168;8.210;2023-04-25T07:33:15;9.02;;;3.78;;
19605;SDS011;9950;50.168;8.210;2023-04-25T07:35:45;9.20;;;4.80;;
19605;SDS011;9950;50.168;8.210;2023-04-25T07:38:12;8.00;;;4.00;;
19605;SDS011;9950;50.168;8.210;2023-04-25T07:40:41;9.82;;;4.40;;
19605;SDS011;9950;50.168;8.210;2023-04-25T07:43:08;9.50;;;4.38;;
19605;SDS011;9950;50.168;8.210;2023-04-25T07:45:37;11.18;;;4.82;;
19605;SDS011;9950;50.168;8.210;2023-04-25T07:48:04;9.43;;;3.90;;
19605;SDS011;9950;50.168;8.210;2023-04-25T07:50:31;9.50;;;3.97;;
19605;SDS011;9950;50.168;8.210;2023-04-25T07:52:58;8.18;;;4.15;;
19605;SDS011;9950;50.168;8.210;2023-04-25T07:55:26;7.57;;;3.65;;
19605;SDS011;9950;50.168;8.210;2023-04-25T07:57:54;7.85;;;3.78;;
19605;SDS011;9950;50.168;8.210;2023-04-25T08:00:21;8.52;;;3.83;;
19605;SDS011;9950;50.168;8.210;2023-04-25T08:02:49;7.60;;;3.42;;
19605;SDS011;9950;50.168;8.210;2023-04-25T08:05:16;5.20;;;3.53;;
19605;SDS011;9950;50.168;8.210;2023-04-25T08:07:43;9.57;;;3.50;;
19605;SDS011;9950;50.168;8.210;2023-04-25T08:10:11;6.85;;;4.10;;
19605;SDS011;9950;50.168;8.210;2023-04-25T08:12:38;8.25;;;4.93;;
19605;SDS011;9950;50.168;8.210;2023-04-25T08:15:07;11.43;;;4.90;;
19605;SDS011;9950;50.168;8.210;2023-04-25T08:17:35;10.93;;;5.43;;
19605;SDS011;9950;50.168;8.210;2023-04-25T08:20:02;11.77;;;6.10;;
19605;SDS011;9950;50.168;8.210;2023-04-25T08:22:31;11.27;;;6.07;;
19605;SDS011;9950;50.168;8.210;2023-04-25T08:24:59;11.50;;;5.72;;
19605;SDS011;9950;50.168;8.210;2023-04-25T08:27:26;10.32;;;6.13;;
19605;SDS011;9950;50.168;8.210;2023-04-25T08:29:53;11.70;;;5.57;;
19605;SDS011;9950;50.168;8.210;2023-04-25T08:32:22;13.48;;;5.85;;
19605;SDS011;9950;50.168;8.210;2023-04-25T08:34:50;10.98;;;6.30;;
19605;SDS011;9950;50.168;8.210;2023-04-25T08:37:19;13.43;;;6.28;;
19605;SDS011;9950;50.168;8.210;2023-04-25T08:39:46;11.30;;;5.70;;
19605;SDS011;9950;50.168;8.210;2023-04-25T08:42:15;10.00;;;6.03;;
19605;SDS011;9950;50.168;8.210;2023-04-25T08:44:43;15.63;;;6.70;;
19605;SDS011;9950;50.168;8.210;2023-04-25T08:47:10;13.07;;;6.82;;
19605;SDS011;9950;50.168;8.210;2023-04-25T08:49:39;11.23;;;5.00;;
19605;SDS011;9950;50.168;8.210;2023-04-25T08:52:06;7.72;;;5.70;;
19605;SDS011;9950;50.168;8.210;2023-04-25T08:54:35;10.38;;;5.72;;
19605;SDS011;9950;50.168;8.210;2023-04-25T08:57:03;12.73;;;5.47;;
19605;SDS011;9950;50.168;8.210;2023-04-25T08:59:31;14.68;;;6.10;;
19605;SDS011;9950;50.168;8.210;2023-04-25T09:01:58;11.23;;;5.55;;
19605;SDS011;9950;50.168;8.210;2023-04-25T09:04:27;11.45;;;5.68;;
19605;SDS011;9950;50.168;8.210;2023-04-25T09:06:56;10.25;;;4.90;;
19605;SDS011;9950;50.168;8.210;2023-04-25T09:09:23;12.50;;;5.40;;
19605;SDS011;9950;50.168;8.210;2023-04-25T09:11:51;9.95;;;5.22;;
19605;SDS011;9950;50.168;8.210;2023-04-25T09:14:22;10.85;;;5.63;;
19605;SDS011;9950;50.168;8.210;2023-04-25T09:16:57;9.13;;;5.72;;
19605;SDS011;9950;50.168;8.210;2023-04-25T09:19:25;15.65;;;5.57;;
19605;SDS011;9950;50.168;8.210;2023-04-25T09:21:54;10.57;;;5.93;;
19605;SDS011;9950;50.168;8.210;2023-04-25T09:24:30;12.10;;;6.43;;
19605;SDS011;9950;50.168;8.210;2023-04-25T09:26:58;11.88;;;6.57;;
19605;SDS011;9950;50.168;8.210;2023-04-25T09:29:29;10.75;;;6.45;;
19605;SDS011;9950;50.168;8.210;2023-04-25T09:32:15;14.85;;;6.72;;
19605;SDS011;9950;50.168;8.210;2023-04-25T09:34:44;11.40;;;6.88;;
19605;SDS011;9950;50.168;8.210;2023-04-25T09:37:16;15.30;;;7.00;;
19605;SDS011;9950;50.168;8.210;2023-04-25T09:39:45;14.40;;;6.03;;
19605;SDS011;9950;50.168;8.210;2023-04-25T09:42:13;10.68;;;6.35;;
19605;SDS011;9950;50.168;8.210;2023-04-25T09:44:43;13.48;;;6.80;;
19605;SDS011;9950;50.168;8.210;2023-04-25T09:47:11;17.48;;;6.55;;
19605;SDS011;9950;50.168;8.210;2023-04-25T09:49:39;11.30;;;5.95;;
19605;SDS011;9950;50.168;8.210;2023-04-25T09:52:07;14.55;;;6.05;;
19605;SDS011;9950;50.168;8.210;2023-04-25T09:54:34;8.95;;;5.25;;
19605;SDS011;9950;50.168;8.210;2023-04-25T09:57:04;10.40;;;5.03;;
19605;SDS011;9950;50.168;8.210;2023-04-25T09:59:34;10.40;;;4.75;;
19605;SDS011;9950;50.168;8.210;2023-04-25T10:02:03;7.70;;;4.82;;
19605;SDS011;9950;50.168;8.210;2023-04-25T10:04:30;11.32;;;5.25;;
19605;SDS011;9950;50.168;8.210;2023-04-25T10:07:01;11.15;;;4.68;;
19605;SDS011;9950;50.168;8.210;2023-04-25T10:09:29;8.85;;;4.50;;
19605;SDS011;9950;50.168;8.210;2023-04-25T10:11:59;12.13;;;4.57;;
19605;SDS011;9950;50.168;8.210;2023-04-25T10:14:28;10.73;;;4.85;;
19605;SDS011;9950;50.168;8.210;2023-04-25T10:16:57;9.73;;;5.20;;
19605;SDS011;9950;50.168;8.210;2023-04-25T10:19:24;11.65;;;5.93;;
19605;SDS011;9950;50.168;8.210;2023-04-25T10:21:52;7.25;;;4.57;;
19605;SDS011;9950;50.168;8.210;2023-04-25T10:24:21;9.30;;;4.70;;
19605;SDS011;9950;50.168;8.210;2023-04-25T10:26:48;9.77;;;5.20;;
19605;SDS011;9950;50.168;8.210;2023-04-25T10:29:21;13.13;;;4.60;;
19605;SDS011;9950;50.168;8.210;2023-04-25T10:31:50;11.82;;;4.60;;
19605;SDS011;9950;50.168;8.210;2023-04-25T10:34:17;7.80;;;4.85;;
19605;SDS011;9950;50.168;8.210;2023-04-25T10:36:48;9.93;;;5.30;;
19605;SDS011;9950;50.168;8.210;2023-04-25T10:39:21;7.32;;;4.22;;
19605;SDS011;9950;50.168;8.210;2023-04-25T10:41:52;7.72;;;5.15;;
19605;SDS011;9950;50.168;8.210;2023-04-25T10:44:19;9.90;;;4.70;;
19605;SDS011;9950;50.168;8.210;2023-04-25T10:46:47;9.60;;;4.70;;
19605;SDS011;9950;50.168;8.210;2023-04-25T10:54:41;16.55;;;4.63;;
19605;SDS011;9950;50.168;8.210;2023-04-25T10:59:50;14.60;;;5.13;;
19605;SDS011;9950;50.168;8.210;2023-04-25T11:02:18;8.70;;;4.25;;
19605;SDS011;9950;50.168;8.210;2023-04-25T11:04:45;9.30;;;4.38;;
19605;SDS011;9950;50.168;8.210;2023-04-25T11:07:13;10.15;;;3.88;;
19605;SDS011;9950;50.168;8.210;2023-04-25T11:09:46;11.50;;;4.00;;
19605;SDS011;9950;50.168;8.210;2023-04-25T11:12:13;8.50;;;4.20;;
19605;SDS011;9950;50.168;8.210;2023-04-25T11:14:42;8.23;;;3.88;;
19605;SDS011;9950;50.168;8.210;2023-04-25T11:17:09;11.13;;;4.35;;
19605;SDS011;9950;50.168;8.210;2023-04-25T11:19:36;9.80;;;4.22;;
19605;SDS011;9950;50.168;8.210;2023-04-25T11:22:03;9.45;;;4.68;;
19605;SDS011;9950;50.168;8.210;2023-04-25T11:24:32;8.07;;;4.57;;
19605;SDS011;9950;50.168;8.210;2023-04-25T11:27:01;10.38;;;4.32;;
19605;SDS011;9950;50.168;8.210;2023-04-25T11:29:28;7.38;;;4.47;;
19605;SDS011;9950;50.168;8.210;2023-04-25T11:31:56;9.43;;;4.28;;
19605;SDS011;9950;50.168;8.210;2023-04-25T11:34:23;10.43;;;4.47;;
19605;SDS011;9950;50.168;8.210;2023-04-25T11:36:51;6.70;;;4.15;;
19605;SDS011;9950;50.168;8.210;2023-04-25T11:39:18;8.93;;;3.50;;
19605;SDS011;9950;50.168;8.210;2023-04-25T11:41:46;11.85;;;4.10;;
19605;SDS011;9950;50.168;8.210;2023-04-25T11:44:16;8.57;;;3.83;;
19605;SDS011;9950;50.168;8.210;2023-04-25T11:46:43;6.32;;;3.20;;
19605;SDS011;9950;50.168;8.210;2023-04-25T11:49:11;7.80;;;3.08;;
19605;SDS011;9950;50.168;8.210;2023-04-25T11:51:38;9.05;;;3.13;;
19605;SDS011;9950;50.168;8.210;2023-04-25T11:54:06;6.72;;;3.03;;
19605;SDS011;9950;50.168;8.210;2023-04-25T11:56:33;7.55;;;3.28;;
19605;SDS011;9950;50.168;8.210;2023-04-25T11:59:01;9.05;;;3.55;;
19605;SDS011;9950;50.168;8.210;2023-04-25T12:01:31;5.68;;;2.83;;
19605;SDS011;9950;50.168;8.210;2023-04-25T12:04:09;5.32;;;3.20;;
19605;SDS011;9950;50.168;8.210;2023-04-25T12:06:36;8.40;;;3.10;;
19605;SDS011;9950;50.168;8.210;2023-04-25T12:09:07;8.90;;;3.78;;
19605;SDS011;9950;50.168;8.210;2023-04-25T12:11:40;6.55;;;3.05;;
19605;SDS011;9950;50.168;8.210;2023-04-25T12:14:07;10.48;;;3.85;;
19605;SDS011;9950;50.168;8.210;2023-04-25T12:16:43;9.82;;;4.03;;
19605;SDS011;9950;50.168;8.210;2023-04-25T12:19:13;8.10;;;3.47;;
19605;SDS011;9950;50.168;8.210;2023-04-25T12:21:40;10.73;;;3.72;;
19605;SDS011;9950;50.168;8.210;2023-04-25T12:24:12;10.63;;;3.78;;
19605;SDS011;9950;50.168;8.210;2023-04-25T12:26:46;8.05;;;3.90;;
19605;SDS011;9950;50.168;8.210;2023-04-25T12:29:17;10.95;;;4.20;;
19605;SDS011;9950;50.168;8.210;2023-04-25T12:31:45;5.43;;;3.88;;
19605;SDS011;9950;50.168;8.210;2023-04-25T12:34:13;8.45;;;3.40;;
19605;SDS011;9950;50.168;8.210;2023-04-25T12:36:40;6.30;;;3.47;;
19605;SDS011;9950;50.168;8.210;2023-04-25T12:39:07;7.03;;;3.50;;
19605;SDS011;9950;50.168;8.210;2023-04-25T12:41:35;7.57;;;3.55;;
19605;SDS011;9950;50.168;8.210;2023-04-25T12:44:02;9.98;;;4.10;;
19605;SDS011;9950;50.168;8.210;2023-04-25T12:46:29;9.50;;;4.05;;
19605;SDS011;9950;50.168;8.210;2023-04-25T12:48:58;12.25;;;3.42;;
19605;SDS011;9950;50.168;8.210;2023-04-25T12:51:25;9.32;;;3.40;;
19605;SDS011;9950;50.168;8.210;2023-04-25T12:53:53;6.93;;;3.58;;
19605;SDS011;9950;50.168;8.210;2023-04-25T12:56:20;7.35;;;3.22;;
19605;SDS011;9950;50.168;8.210;2023-04-25T12:58:47;8.60;;;3.60;;
19605;SDS011;9950;50.168;8.210;2023-04-25T13:01:14;7.65;;;3.35;;
19605;SDS011;9950;50.168;8.210;2023-04-25T13:03:41;7.47;;;3.60;;
19605;SDS011;9950;50.168;8.210;2023-04-25T13:06:10;8.85;;;4.38;;
19605;SDS011;9950;50.168;8.210;2023-04-25T13:08:38;9.90;;;3.60;;
19605;SDS011;9950;50.168;8.210;2023-04-25T13:11:06;6.93;;;3.30;;
19605;SDS011;9950;50.168;8.210;2023-04-25T13:13:33;10.32;;;3.70;;
19605;SDS011;9950;50.168;8.210;2023-04-25T13:16:00;7.05;;;3.20;;
19605;SDS011;9950;50.168;8.210;2023-04-25T13:18:28;9.10;;;3.17;;
19605;SDS011;9950;50.168;8.210;2023-04-25T13:20:55;7.80;;;3.20;;
19605;SDS011;9950;50.168;8.210;2023-04-25T13:23:24;7.22;;;3.20;;
19605;SDS011;9950;50.168;8.210;2023-04-25T13:25:51;8.07;;;3.20;;
19605;SDS011;9950;50.168;8.210;2023-04-25T13:28:18;7.28;;;3.20;;
19605;SDS011;9950;50.168;8.210;2023-04-25T13:30:46;10.80;;;3.30;;
19605;SDS011;9950;50.168;8.210;2023-04-25T13:33:13;7.60;;;2.92;;
19605;SDS011;9950;50.168;8.210;2023-04-25T13:35:40;9.05;;;3.05;;
19605;SDS011;9950;50.168;8.210;2023-04-25T13:38:08;5.15;;;3.20;;
19605;SDS011;9950;50.168;8.210;2023-04-25T13:40:36;8.90;;;3.30;;
19605;SDS011;9950;50.168;8.210;2023-04-25T13:43:04;9.70;;;3.10;;
19605;SDS011;9950;50.168;8.210;2023-04-25T13:45:31;10.40;;;5.60;;
19605;SDS011;9950;50.168;8.210;2023-04-25T13:47:58;7.63;;;3.08;;
19605;SDS011;9950;50.168;8.210;2023-04-25T13:50:26;4.93;;;2.40;;
19605;SDS011;9950;50.168;8.210;2023-04-25T13:52:53;5.68;;;2.50;;
19605;SDS011;9950;50.168;8.210;2023-04-25T13:55:21;7.18;;;2.55;;
19605;SDS011;9950;50.168;8.210;2023-04-25T13:57:49;8.30;;;2.60;;
19605;SDS011;9950;50.168;8.210;2023-04-25T14:00:17;6.22;;;2.25;;
19605;SDS011;9950;50.168;8.210;2023-04-25T14:02:45;4.15;;;2.33;;
19605;SDS011;9950;50.168;8.210;2023-04-25T14:05:13;7.50;;;2.88;;
19605;SDS011;9950;50.168;8.210;2023-04-25T14:07:40;9.70;;;3.08;;
19605;SDS011;9950;50.168;8.210;2023-04-25T14:10:08;6.40;;;2.83;;
19605;SDS011;9950;50.168;8.210;2023-04-25T14:12:35;7.03;;;2.58;;
19605;SDS011;9950;50.168;8.210;2023-04-25T14:15:04;6.18;;;2.78;;
19605;SDS011;9950;50.168;8.210;2023-04-25T14:17:32;6.80;;;2.92;;
19605;SDS011;9950;50.168;8.210;2023-04-25T14:19:59;4.28;;;2.65;;
19605;SDS011;9950;50.168;8.210;2023-04-25T14:22:26;9.25;;;3.28;;
19605;SDS011;9950;50.168;8.210;2023-04-25T14:24:53;8.57;;;3.22;;
19605;SDS011;9950;50.168;8.210;2023-04-25T14:27:20;9.73;;;3.10;;
19605;SDS011;9950;50.168;8.210;2023-04-25T14:29:48;6.63;;;2.95;;
19605;SDS011;9950;50.168;8.210;2023-04-25T14:32:16;7.95;;;3.00;;
19605;SDS011;9950;50.168;8.210;2023-04-25T14:34:45;7.40;;;3.00;;
19605;SDS011;9950;50.168;8.210;2023-04-25T14:37:12;11.88;;;3.35;;
19605;SDS011;9950;50.168;8.210;2023-04-25T14:39:40;7.40;;;2.90;;
19605;SDS011;9950;50.168;8.210;2023-04-25T14:42:07;9.27;;;3.38;;
19605;SDS011;9950;50.168;8.210;2023-04-25T14:44:34;7.43;;;3.75;;
19605;SDS011;9950;50.168;8.210;2023-04-25T14:47:01;6.85;;;3.17;;
19605;SDS011;9950;50.168;8.210;2023-04-25T14:49:31;8.13;;;2.88;;
19605;SDS011;9950;50.168;8.210;2023-04-25T14:51:58;5.18;;;2.63;;
19605;SDS011;9950;50.168;8.210;2023-04-25T14:54:26;6.05;;;2.58;;
19605;SDS011;9950;50.168;8.210;2023-04-25T14:56:53;6.78;;;2.38;;
19605;SDS011;9950;50.168;8.210;2023-04-25T14:59:20;5.97;;;2.35;;